Time;durP1;ratioP1;P1;durP2;ratioP2;P2;SDS_P1;SDS_P2;PMS_P1;PMS_P2;Temp;Humidity;BMP_temperature;BMP_pressure;BME280_temperature;BME280_humidity;BME280_pressure;Samples;Min_cycle;Max_cycle;Signal;HPM_P1;HPM_P2
2023/10/25 00:00:12;;;;;;;10.07;6.13;;;;;;;;;;5049945;28;20183;-62
2023/10/25 00:02:38;;;;;;;11.73;6.50;;;;;;;;;;5050628;28;20041;-62
2023/10/25 00:05:04;;;;;;;11.23;6.53;;;;;;;;;;5050610;28;20037;-62
2023/10/25 00:07:30;;;;;;;13.82;5.90;;;;;;;;;;5050079;28;20045;-62
2023/10/25 00:09:56;;;;;;;14.77;6.10;;;;;;;;;;5050290;28;20094;-62
2023/10/25 00:12:22;;;;;;;7.35;5.07;;;;;;;;;;5050388;28;20033;-62
2023/10/25 00:14:48;;;;;;;13.13;5.82;;;;;;;;;;5049910;28;20043;-62
2023/10/25 00:17:14;;;;;;;9.35;5.88;;;;;;;;;;5050010;28;20064;-62
2023/10/25 00:19:40;;;;;;;15.98;5.68;;;;;;;;;;5050452;28;20106;-62
2023/10/25 00:22:06;;;;;;;12.63;5.70;;;;;;;;;;5049995;28;20044;-62
2023/10/25 00:24:33;;;;;;;10.75;5.70;;;;;;;;;;5050244;28;20052;-62
2023/10/25 00:26:59;;;;;;;11.05;5.25;;;;;;;;;;5050296;28;20091;-62
2023/10/25 00:29:24;;;;;;;11.05;6.10;;;;;;;;;;5049549;28;20044;-62
2023/10/25 00:31:50;;;;;;;10.38;5.50;;;;;;;;;;5050119;28;20037;-62
2023/10/25 00:34:16;;;;;;;12.68;5.55;;;;;;;;;;5050096;28;20041;-62
2023/10/25 00:36:42;;;;;;;13.60;5.20;;;;;;;;;;5049680;28;20037;-62
2023/10/25 00:39:08;;;;;;;14.25;6.03;;;;;;;;;;5032118;28;20471;-62
2023/10/25 00:41:34;;;;;;;10.95;5.22;;;;;;;;;;5049872;28;20068;-62
2023/10/25 00:44:00;;;;;;;14.25;5.38;;;;;;;;;;5049455;28;20044;-62
2023/10/25 00:46:27;;;;;;;15.25;5.80;;;;;;;;;;5049924;28;20044;-62
2023/10/25 00:48:55;;;;;;;11.27;4.90;;;;;;;;;;5049790;28;20045;-62
2023/10/25 00:51:22;;;;;;;14.68;5.75;;;;;;;;;;5049431;28;20468;-62
2023/10/25 00:53:52;;;;;;;13.20;5.32;;;;;;;;;;5049465;28;20049;-62
2023/10/25 00:56:20;;;;;;;9.38;4.93;;;;;;;;;;5049118;28;20507;-62
2023/10/25 00:58:48;;;;;;;9.82;5.07;;;;;;;;;;5049325;28;20052;-62
2023/10/25 01:01:15;;;;;;;10.88;5.35;;;;;;;;;;5049629;28;20475;-62
2023/10/25 01:03:41;;;;;;;12.23;5.38;;;;;;;;;;5049526;28;20044;-62
2023/10/25 01:06:07;;;;;;;12.20;5.75;;;;;;;;;;5049200;28;20041;-62
2023/10/25 01:08:33;;;;;;;9.57;5.22;;;;;;;;;;5049549;28;20044;-62
2023/10/25 01:10:59;;;;;;;11.63;5.65;;;;;;;;;;5049595;28;20040;-62
2023/10/25 01:13:25;;;;;;;11.32;5.47;;;;;;;;;;5049113;28;20044;-62
2023/10/25 01:15:51;;;;;;;12.88;6.25;;;;;;;;;;5049441;28;20052;-62
2023/10/25 01:18:17;;;;;;;12.68;5.82;;;;;;;;;;5049283;28;20273;-62
2023/10/25 01:20:44;;;;;;;10.05;5.63;;;;;;;;;;5049138;28;20047;-62
2023/10/25 01:23:10;;;;;;;9.90;5.43;;;;;;;;;;5049537;28;20040;-62
2023/10/25 01:25:37;;;;;;;11.15;5.43;;;;;;;;;;5049263;28;20079;-62
2023/10/25 01:28:04;;;;;;;11.75;5.97;;;;;;;;;;5049338;28;20116;-62
2023/10/25 01:30:30;;;;;;;14.90;5.63;;;;;;;;;;5031086;28;20494;-62
2023/10/25 01:32:56;;;;;;;9.63;5.63;;;;;;;;;;5049279;28;20033;-62
2023/10/25 01:35:22;;;;;;;11.23;5.45;;;;;;;;;;5048771;28;20040;-62
2023/10/25 01:37:48;;;;;;;9.27;5.53;;;;;;;;;;5049538;28;20048;-62
2023/10/25 01:40:15;;;;;;;12.00;6.60;;;;;;;;;;5049104;28;20396;-62
2023/10/25 01:42:41;;;;;;;13.77;6.07;;;;;;;;;;5048902;28;20511;-62
2023/10/25 01:45:07;;;;;;;12.10;6.53;;;;;;;;;;5049297;28;20080;-62
2023/10/25 01:47:33;;;;;;;11.20;6.22;;;;;;;;;;5048933;28;20037;-62
2023/10/25 01:49:59;;;;;;;10.65;5.45;;;;;;;;;;5048801;28;20107;-62
2023/10/25 01:52:25;;;;;;;9.68;6.20;;;;;;;;;;5049198;28;20029;-62
2023/10/25 01:54:51;;;;;;;12.50;6.43;;;;;;;;;;5048743;28;20045;-62
2023/10/25 01:57:17;;;;;;;13.05;6.47;;;;;;;;;;5048634;28;20041;-62
2023/10/25 01:59:43;;;;;;;12.35;6.13;;;;;;;;;;5049276;28;20406;-62
2023/10/25 02:02:12;;;;;;;14.38;6.93;;;;;;;;;;5049381;28;20045;-62
2023/10/25 02:04:38;;;;;;;13.68;6.70;;;;;;;;;;5048778;28;20531;-62
2023/10/25 02:07:05;;;;;;;10.93;6.80;;;;;;;;;;5049633;28;20127;-62
2023/10/25 02:09:31;;;;;;;13.93;6.82;;;;;;;;;;5052723;28;20583;-62
2023/10/25 02:11:57;;;;;;;15.00;7.03;;;;;;;;;;5052331;28;20044;-62
2023/10/25 02:14:23;;;;;;;13.38;6.93;;;;;;;;;;5052566;28;20029;-62
2023/10/25 02:16:49;;;;;;;19.67;7.53;;;;;;;;;;5052441;28;20041;-62
2023/10/25 02:19:15;;;;;;;13.48;7.85;;;;;;;;;;5052322;28;20033;-62
2023/10/25 02:21:41;;;;;;;14.05;7.43;;;;;;;;;;5052688;28;20037;-62
2023/10/25 02:24:10;;;;;;;15.32;7.70;;;;;;;;;;5052563;28;20044;-62
2023/10/25 02:26:36;;;;;;;15.48;7.47;;;;;;;;;;5051870;28;20040;-62
2023/10/25 02:29:02;;;;;;;16.17;8.10;;;;;;;;;;5052517;28;20052;-62
2023/10/25 02:31:29;;;;;;;14.23;8.70;;;;;;;;;;5034131;28;20037;-62
2023/10/25 02:33:54;;;;;;;14.60;8.70;;;;;;;;;;5051936;28;20037;-62
2023/10/25 02:36:20;;;;;;;16.13;7.47;;;;;;;;;;5052175;28;20094;-62
2023/10/25 02:38:49;;;;;;;19.55;8.52;;;;;;;;;;5052093;28;20037;-62
2023/10/25 02:41:15;;;;;;;15.80;8.55;;;;;;;;;;5051650;28;20080;-62
2023/10/25 02:43:42;;;;;;;14.73;8.90;;;;;;;;;;5051913;28;20060;-62
2023/10/25 02:46:12;;;;;;;17.05;9.07;;;;;;;;;;5052051;28;20545;-62
2023/10/25 02:48:41;;;;;;;18.40;8.98;;;;;;;;;;5051684;28;20094;-62
2023/10/25 02:51:07;;;;;;;14.27;8.05;;;;;;;;;;5051931;28;20067;-62
2023/10/25 02:53:33;;;;;;;13.65;7.78;;;;;;;;;;5051760;28;20053;-62
2023/10/25 02:56:00;;;;;;;14.73;8.63;;;;;;;;;;5051466;28;20045;-62
2023/10/25 02:58:26;;;;;;;18.83;8.48;;;;;;;;;;5051828;28;20079;-62
2023/10/25 03:00:52;;;;;;;14.23;8.07;;;;;;;;;;5051683;28;20052;-62
2023/10/25 03:03:18;;;;;;;17.38;8.75;;;;;;;;;;5051453;28;20045;-62
2023/10/25 03:05:44;;;;;;;12.65;7.90;;;;;;;;;;5051408;28;20051;-62
2023/10/25 03:08:10;;;;;;;14.68;7.80;;;;;;;;;;5051788;28;20090;-62
2023/10/25 03:10:36;;;;;;;14.40;7.55;;;;;;;;;;5051302;28;20041;-62
2023/10/25 03:13:02;;;;;;;11.48;7.35;;;;;;;;;;5051743;28;20037;-62
2023/10/25 03:15:28;;;;;;;11.93;7.80;;;;;;;;;;5051438;28;20037;-62
2023/10/25 03:17:54;;;;;;;11.75;7.15;;;;;;;;;;5050419;28;20040;-62
2023/10/25 03:20:20;;;;;;;13.35;7.20;;;;;;;;;;5051434;28;20051;-62
2023/10/25 03:22:46;;;;;;;16.77;8.00;;;;;;;;;;5051388;28;20103;-62
2023/10/25 03:25:12;;;;;;;9.38;6.63;;;;;;;;;;5050915;28;20391;-62
2023/10/25 03:27:38;;;;;;;13.02;7.20;;;;;;;;;;5051187;28;20076;-62
2023/10/25 03:30:05;;;;;;;12.23;6.95;;;;;;;;;;5051102;28;20055;-62
2023/10/25 03:32:31;;;;;;;12.75;6.65;;;;;;;;;;5050888;28;20040;-62
2023/10/25 03:34:57;;;;;;;14.45;7.50;;;;;;;;;;5050973;28;20033;-62
2023/10/25 03:37:23;;;;;;;12.63;7.35;;;;;;;;;;5051107;28;20045;-62
2023/10/25 03:39:49;;;;;;;13.20;7.50;;;;;;;;;;5050981;28;20076;-62
2023/10/25 03:42:15;;;;;;;12.90;7.53;;;;;;;;;;5050526;28;20040;-62
2023/10/25 03:44:41;;;;;;;13.15;7.47;;;;;;;;;;5050955;28;20070;-62
2023/10/25 03:47:07;;;;;;;13.70;7.53;;;;;;;;;;5050725;28;20057;-62
2023/10/25 03:49:33;;;;;;;12.68;7.90;;;;;;;;;;5050343;28;20044;-62
2023/10/25 03:51:59;;;;;;;19.15;8.10;;;;;;;;;;5032698;28;20535;-62
2023/10/25 03:54:25;;;;;;;16.67;7.85;;;;;;;;;;5050632;28;20296;-62
2023/10/25 03:56:51;;;;;;;11.25;6.78;;;;;;;;;;5050232;28;20045;-62
2023/10/25 03:59:17;;;;;;;13.90;7.72;;;;;;;;;;5050656;28;20626;-62
2023/10/25 04:01:43;;;;;;;17.77;7.85;;;;;;;;;;5050743;28;20036;-62
2023/10/25 04:04:11;;;;;;;12.60;8.10;;;;;;;;;;5050506;28;20053;-62
2023/10/25 04:06:37;;;;;;;15.95;7.80;;;;;;;;;;5050618;28;20103;-62
2023/10/25 04:09:03;;;;;;;13.70;7.47;;;;;;;;;;5050437;28;20045;-62
2023/10/25 04:11:29;;;;;;;13.40;7.82;;;;;;;;;;5050059;28;20041;-62
2023/10/25 04:13:55;;;;;;;18.80;8.07;;;;;;;;;;5050340;28;20043;-62
2023/10/25 04:16:21;;;;;;;16.45;8.00;;;;;;;;;;5050240;28;20506;-62
2023/10/25 04:18:47;;;;;;;12.75;7.65;;;;;;;;;;5049772;28;20041;-62
2023/10/25 04:21:13;;;;;;;14.77;7.70;;;;;;;;;;5050276;28;20064;-62
2023/10/25 04:23:40;;;;;;;13.98;7.30;;;;;;;;;;5050064;28;20045;-62
2023/10/25 04:26:06;;;;;;;12.95;7.40;;;;;;;;;;5049647;28;20037;-62
2023/10/25 04:28:32;;;;;;;14.80;7.30;;;;;;;;;;5050085;28;20437;-62
2023/10/25 04:30:59;;;;;;;12.63;7.15;;;;;;;;;;5049683;28;20450;-62
2023/10/25 04:33:25;;;;;;;12.85;6.93;;;;;;;;;;5051166;28;20124;-62
2023/10/25 04:35:51;;;;;;;11.32;6.88;;;;;;;;;;5051429;28;20037;-62
2023/10/25 04:38:17;;;;;;;12.45;6.88;;;;;;;;;;5051417;28;20041;-62
2023/10/25 04:40:43;;;;;;;14.00;6.88;;;;;;;;;;5051001;28;20037;-62
2023/10/25 04:43:09;;;;;;;11.98;6.93;;;;;;;;;;5050594;28;20041;-62
2023/10/25 04:45:35;;;;;;;13.20;7.32;;;;;;;;;;5051154;28;20052;-62
2023/10/25 04:48:01;;;;;;;17.88;7.13;;;;;;;;;;5050662;28;20048;-62
2023/10/25 04:50:32;;;;;;;8.98;6.55;;;;;;;;;;5051173;28;20246;-62
2023/10/25 04:52:59;;;;;;;14.38;7.03;;;;;;;;;;5050724;28;20045;-62
2023/10/25 04:55:26;;;;;;;13.73;6.97;;;;;;;;;;5050353;28;20128;-62
2023/10/25 04:57:53;;;;;;;17.20;7.07;;;;;;;;;;5051030;28;20041;-62
2023/10/25 05:00:19;;;;;;;12.05;6.63;;;;;;;;;;5050428;28;20045;-62
2023/10/25 05:02:45;;;;;;;12.60;6.75;;;;;;;;;;5050249;28;20047;-62
2023/10/25 05:05:11;;;;;;;14.55;6.90;;;;;;;;;;5051083;28;20036;-62
2023/10/25 05:07:37;;;;;;;14.93;6.95;;;;;;;;;;5051079;28;20053;-62
2023/10/25 05:10:07;;;;;;;12.20;6.82;;;;;;;;;;5050793;28;20079;-62
2023/10/25 05:12:41;;;;;;;16.35;6.47;;;;;;;;;;5050264;28;20041;-62
2023/10/25 05:15:08;;;;;;;10.88;6.97;;;;;;;;;;5051066;28;20037;-62
2023/10/25 05:17:34;;;;;;;13.95;5.88;;;;;;;;;;5050467;28;20644;-62
2023/10/25 05:20:01;;;;;;;12.68;5.97;;;;;;;;;;5050960;28;20349;-62
2023/10/25 05:22:28;;;;;;;14.45;6.43;;;;;;;;;;5051075;28;20063;-62
2023/10/25 05:24:54;;;;;;;13.23;6.88;;;;;;;;;;5050629;28;20048;-62
2023/10/25 05:27:21;;;;;;;11.45;7.13;;;;;;;;;;5050797;28;20041;-62
2023/10/25 05:29:47;;;;;;;14.63;7.32;;;;;;;;;;5050885;28;20042;-62
2023/10/25 05:32:17;;;;;;;13.98;7.70;;;;;;;;;;5050542;28;20063;-62
2023/10/25 05:34:44;;;;;;;12.73;6.40;;;;;;;;;;5050954;28;20486;-62
2023/10/25 05:37:10;;;;;;;14.20;6.60;;;;;;;;;;5050784;28;20044;-62
2023/10/25 05:39:36;;;;;;;11.20;6.63;;;;;;;;;;5050253;28;20063;-62
2023/10/25 05:42:04;;;;;;;10.90;6.70;;;;;;;;;;5053328;28;20045;-62
2023/10/25 05:44:31;;;;;;;14.98;7.38;;;;;;;;;;5054443;28;20086;-62
2023/10/25 05:46:57;;;;;;;11.15;6.05;;;;;;;;;;5053972;28;20037;-62
2023/10/25 05:49:24;;;;;;;13.63;6.45;;;;;;;;;;5054548;28;20391;-62
2023/10/25 05:51:50;;;;;;;13.35;6.28;;;;;;;;;;5054618;28;20068;-62
2023/10/25 05:54:16;;;;;;;10.80;6.25;;;;;;;;;;5053763;28;20056;-62
2023/10/25 05:56:42;;;;;;;13.63;6.78;;;;;;;;;;5053900;28;20131;-62
2023/10/25 05:59:08;;;;;;;14.43;6.68;;;;;;;;;;5053959;28;20043;-62
2023/10/25 06:01:35;;;;;;;12.55;6.80;;;;;;;;;;5053800;28;20489;-62
2023/10/25 06:04:05;;;;;;;11.05;6.50;;;;;;;;;;5054014;28;20055;-62
2023/10/25 06:06:32;;;;;;;13.77;6.63;;;;;;;;;;5054271;28;20041;-62
2023/10/25 06:08:58;;;;;;;9.27;6.90;;;;;;;;;;5054069;28;20037;-62
2023/10/25 06:11:24;;;;;;;15.43;7.05;;;;;;;;;;5054285;28;20052;-62
2023/10/25 06:13:50;;;;;;;13.10;6.97;;;;;;;;;;5054212;28;20078;-62
2023/10/25 06:16:18;;;;;;;11.52;6.35;;;;;;;;;;5053759;28;20127;-62
2023/10/25 06:18:44;;;;;;;12.27;6.60;;;;;;;;;;5054032;28;20472;-62
2023/10/25 06:21:10;;;;;;;13.48;7.10;;;;;;;;;;5054084;28;20083;-62
2023/10/25 06:23:36;;;;;;;12.02;7.70;;;;;;;;;;5053427;28;20071;-62
2023/10/25 06:26:03;;;;;;;14.68;7.75;;;;;;;;;;5053943;28;20048;-62
2023/10/25 06:28:30;;;;;;;16.73;8.38;;;;;;;;;;5054042;28;20051;-62
2023/10/25 06:30:56;;;;;;;14.70;8.15;;;;;;;;;;5053497;28;20094;-62
2023/10/25 06:33:22;;;;;;;14.25;7.53;;;;;;;;;;5053597;28;20051;-62
2023/10/25 06:35:48;;;;;;;14.43;7.88;;;;;;;;;;5053771;28;20615;-62
2023/10/25 06:38:14;;;;;;;13.07;7.53;;;;;;;;;;5053407;28;20053;-62
2023/10/25 06:40:40;;;;;;;12.02;7.50;;;;;;;;;;5053849;28;20053;-62
2023/10/25 06:43:07;;;;;;;12.45;7.90;;;;;;;;;;5053516;28;20044;-62
2023/10/25 06:45:33;;;;;;;12.73;7.72;;;;;;;;;;5053290;28;20136;-62
2023/10/25 06:48:00;;;;;;;11.45;7.90;;;;;;;;;;5053399;28;20044;-62
2023/10/25 06:50:26;;;;;;;15.15;8.10;;;;;;;;;;5053279;28;20120;-62
2023/10/25 06:52:53;;;;;;;16.95;9.07;;;;;;;;;;5051787;28;20052;-62
2023/10/25 06:55:19;;;;;;;18.45;8.25;;;;;;;;;;5053390;28;20060;-62
2023/10/25 06:57:46;;;;;;;12.30;7.30;;;;;;;;;;5053389;28;20037;-62
2023/10/25 07:00:12;;;;;;;15.80;8.07;;;;;;;;;;5053022;28;20635;-62
2023/10/25 07:02:43;;;;;;;11.50;8.13;;;;;;;;;;5053383;28;20076;-62
2023/10/25 07:05:11;;;;;;;13.82;8.15;;;;;;;;;;5053417;28;20037;-62
2023/10/25 07:07:38;;;;;;;15.52;8.38;;;;;;;;;;5052912;28;20379;-62
2023/10/25 07:10:04;;;;;;;15.77;8.18;;;;;;;;;;5052805;28;20041;-62
2023/10/25 07:12:33;;;;;;;13.18;8.13;;;;;;;;;;5053350;28;20056;-62
2023/10/25 07:14:59;;;;;;;15.75;7.78;;;;;;;;;;5052525;28;20040;-62
2023/10/25 07:17:27;;;;;;;11.25;7.45;;;;;;;;;;5052822;28;20036;-62
2023/10/25 07:19:53;;;;;;;11.68;7.60;;;;;;;;;;5052983;28;20056;-62
2023/10/25 07:22:19;;;;;;;17.27;8.32;;;;;;;;;;5052655;28;20476;-62
2023/10/25 07:24:45;;;;;;;14.55;7.80;;;;;;;;;;5052838;28;20041;-62
2023/10/25 07:27:12;;;;;;;9.38;7.47;;;;;;;;;;5052774;28;20051;-62
2023/10/25 07:29:38;;;;;;;11.13;7.47;;;;;;;;;;5052509;28;20045;-62
2023/10/25 07:32:04;;;;;;;11.65;6.88;;;;;;;;;;5052862;28;20695;-62
2023/10/25 07:34:30;;;;;;;11.18;7.57;;;;;;;;;;5052819;28;20044;-62
2023/10/25 07:36:56;;;;;;;13.30;7.43;;;;;;;;;;5052235;28;20701;-62
2023/10/25 07:39:22;;;;;;;11.52;7.45;;;;;;;;;;5032986;28;20051;-62
2023/10/25 07:41:48;;;;;;;12.13;7.50;;;;;;;;;;5051614;28;20102;-63
2023/10/25 07:44:14;;;;;;;14.07;8.20;;;;;;;;;;5051335;28;20101;-63
2023/10/25 07:46:40;;;;;;;13.90;7.60;;;;;;;;;;5051250;28;20128;-63
2023/10/25 07:49:07;;;;;;;14.45;7.80;;;;;;;;;;5051101;28;20222;-63
2023/10/25 07:51:33;;;;;;;13.32;7.80;;;;;;;;;;5051136;28;20364;-63
2023/10/25 07:53:59;;;;;;;14.25;7.63;;;;;;;;;;5051004;28;20519;-63
2023/10/25 07:56:25;;;;;;;15.85;7.80;;;;;;;;;;5051428;28;20048;-62
2023/10/25 07:58:51;;;;;;;15.18;7.72;;;;;;;;;;5051654;28;20571;-63
2023/10/25 08:01:17;;;;;;;14.80;7.15;;;;;;;;;;5051564;28;20123;-63
2023/10/25 08:03:43;;;;;;;16.45;8.23;;;;;;;;;;5051673;28;20052;-63
2023/10/25 08:06:09;;;;;;;19.67;8.40;;;;;;;;;;5051557;28;20614;-63
2023/10/25 08:08:35;;;;;;;12.93;8.10;;;;;;;;;;5051570;28;20124;-63
2023/10/25 08:11:03;;;;;;;13.60;7.80;;;;;;;;;;5051625;28;20140;-63
2023/10/25 08:13:33;;;;;;;11.63;7.97;;;;;;;;;;5051664;28;20076;-63
2023/10/25 08:16:00;;;;;;;14.48;7.68;;;;;;;;;;5050309;28;20041;-63
2023/10/25 08:18:30;;;;;;;12.73;7.22;;;;;;;;;;5045525;28;20030;-64
2023/10/25 08:20:56;;;;;;;12.93;7.43;;;;;;;;;;5051337;28;20466;-63
2023/10/25 08:23:22;;;;;;;15.93;8.35;;;;;;;;;;5031983;28;20047;-63
2023/10/25 08:25:48;;;;;;;12.82;7.82;;;;;;;;;;5048438;28;20142;-62
2023/10/25 08:28:15;;;;;;;17.10;7.75;;;;;;;;;;5049434;28;20041;-63
2023/10/25 08:30:41;;;;;;;14.30;8.25;;;;;;;;;;5030718;28;20041;-63
2023/10/25 08:33:07;;;;;;;14.52;7.70;;;;;;;;;;5051154;28;20048;-63
2023/10/25 08:35:33;;;;;;;15.73;8.27;;;;;;;;;;5050754;28;20047;-63
2023/10/25 08:37:59;;;;;;;13.52;7.53;;;;;;;;;;5044653;28;20092;-63
2023/10/25 08:40:25;;;;;;;15.27;8.20;;;;;;;;;;5046146;28;20048;-63
2023/10/25 08:42:51;;;;;;;13.38;8.07;;;;;;;;;;5050704;28;20033;-62
2023/10/25 08:45:17;;;;;;;16.17;7.72;;;;;;;;;;5050226;28;20049;-63
2023/10/25 08:47:43;;;;;;;12.85;7.88;;;;;;;;;;5050305;28;20117;-62
2023/10/25 08:50:10;;;;;;;12.75;7.63;;;;;;;;;;5051025;28;20045;-63
2023/10/25 08:52:37;;;;;;;16.58;7.97;;;;;;;;;;5045722;28;20462;-63
2023/10/25 08:55:07;;;;;;;12.38;7.85;;;;;;;;;;5008173;28;20092;-63
2023/10/25 08:57:34;;;;;;;16.90;8.05;;;;;;;;;;5030570;28;20409;-62
2023/10/25 09:00:00;;;;;;;14.20;8.25;;;;;;;;;;5029788;28;20103;-62
2023/10/25 09:02:26;;;;;;;14.27;8.52;;;;;;;;;;5040596;28;20120;-62
2023/10/25 09:04:58;;;;;;;12.45;7.78;;;;;;;;;;5014359;28;20133;-62
2023/10/25 09:07:29;;;;;;;11.73;7.53;;;;;;;;;;5012376;28;20124;-62
2023/10/25 09:09:55;;;;;;;12.25;7.75;;;;;;;;;;5030773;28;20056;-64
2023/10/25 09:12:21;;;;;;;17.30;8.18;;;;;;;;;;5030632;28;20044;-63
2023/10/25 09:14:48;;;;;;;16.13;8.50;;;;;;;;;;4999146;28;20038;-62
2023/10/25 09:17:14;;;;;;;13.55;8.60;;;;;;;;;;5035407;28;20041;-63
2023/10/25 09:19:47;;;;;;;14.18;8.95;;;;;;;;;;5036862;28;20504;-62
2023/10/25 09:22:21;;;;;;;14.38;8.18;;;;;;;;;;5036972;28;20064;-63
2023/10/25 09:24:48;;;;;;;13.50;8.77;;;;;;;;;;5037111;28;20125;-62
2023/10/25 09:27:14;;;;;;;13.43;8.45;;;;;;;;;;5036760;28;20724;-63
2023/10/25 09:29:40;;;;;;;17.00;8.40;;;;;;;;;;5036297;28;20052;-63
2023/10/25 09:32:07;;;;;;;15.77;8.85;;;;;;;;;;5036928;28;20029;-64
2023/10/25 09:34:34;;;;;;;16.13;9.40;;;;;;;;;;5036241;28;20049;-63
2023/10/25 09:37:01;;;;;;;15.13;8.75;;;;;;;;;;5028813;28;20039;-64
2023/10/25 09:39:27;;;;;;;12.07;7.90;;;;;;;;;;5031243;28;20091;-63
2023/10/25 09:41:54;;;;;;;16.10;8.00;;;;;;;;;;5023493;28;20718;-64
2023/10/25 09:44:20;;;;;;;15.27;7.90;;;;;;;;;;5029194;28;20059;-64
2023/10/25 09:46:47;;;;;;;11.48;7.65;;;;;;;;;;5036802;28;20155;-64
2023/10/25 09:49:15;;;;;;;14.52;9.05;;;;;;;;;;5014218;28;20053;-63
2023/10/25 09:52:01;;;;;;;13.68;8.13;;;;;;;;;;5029716;28;20048;-63
2023/10/25 09:54:32;;;;;;;13.82;7.47;;;;;;;;;;5050796;28;20057;-62
2023/10/25 09:56:59;;;;;;;15.65;8.40;;;;;;;;;;5056120;28;20037;-63
2023/10/25 09:59:27;;;;;;;12.23;7.80;;;;;;;;;;5047816;28;20044;-63
2023/10/25 10:01:54;;;;;;;15.18;8.10;;;;;;;;;;5054249;28;20049;-63
2023/10/25 10:04:27;;;;;;;13.27;7.28;;;;;;;;;;5063648;28;20051;-63
2023/10/25 10:07:04;;;;;;;16.05;7.68;;;;;;;;;;5066544;28;20049;-63
2023/10/25 10:09:33;;;;;;;17.67;7.45;;;;;;;;;;5056080;28;20095;-64
2023/10/25 10:12:06;;;;;;;9.95;7.47;;;;;;;;;;5055115;28;20041;-64
2023/10/25 10:14:35;;;;;;;11.48;7.55;;;;;;;;;;5052499;28;20034;-65
2023/10/25 10:17:13;;;;;;;11.25;7.07;;;;;;;;;;5051888;28;20115;-64
2023/10/25 10:19:40;;;;;;;11.95;7.35;;;;;;;;;;5042386;28;20047;-63
2023/10/25 10:22:12;;;;;;;16.08;7.55;;;;;;;;;;5070283;28;20043;-63
2023/10/25 10:24:45;;;;;;;14.20;7.20;;;;;;;;;;5061806;28;20049;-63
2023/10/25 10:27:16;;;;;;;10.65;6.78;;;;;;;;;;5053652;28;20041;-64
2023/10/25 10:29:42;;;;;;;13.15;7.60;;;;;;;;;;5051356;28;20028;-64
2023/10/25 10:32:09;;;;;;;11.00;7.55;;;;;;;;;;5049192;28;20119;-63
2023/10/25 10:34:47;;;;;;;15.70;8.40;;;;;;;;;;5052197;28;20037;-64
2023/10/25 10:37:21;;;;;;;12.02;6.90;;;;;;;;;;5052841;28;20048;-64
2023/10/25 10:39:57;;;;;;;14.70;7.03;;;;;;;;;;5052847;28;20110;-64
2023/10/25 10:42:29;;;;;;;10.57;7.30;;;;;;;;;;5034742;28;20048;-63
2023/10/25 10:44:55;;;;;;;;;;;;;;;;;;5053351;28;20037;-63
2023/10/25 10:47:28;;;;;;;11.73;7.18;;;;;;;;;;5052634;28;20008;-63
2023/10/25 10:49:57;;;;;;;16.30;7.57;;;;;;;;;;5051988;28;20064;-63
2023/10/25 10:52:23;;;;;;;14.80;7.03;;;;;;;;;;5052768;28;20553;-63
2023/10/25 10:54:49;;;;;;;12.68;7.30;;;;;;;;;;5052824;28;20053;-64
2023/10/25 10:57:16;;;;;;;9.52;6.60;;;;;;;;;;5051572;28;20045;-63
2023/10/25 10:59:45;;;;;;;17.38;7.10;;;;;;;;;;5052395;28;20037;-63
2023/10/25 11:02:12;;;;;;;14.35;7.03;;;;;;;;;;5044604;28;20148;-63
2023/10/25 11:04:47;;;;;;;16.63;6.20;;;;;;;;;;5034215;28;20045;-63
2023/10/25 11:07:13;;;;;;;10.48;6.03;;;;;;;;;;5049903;28;20038;-63
2023/10/25 11:09:39;;;;;;;11.68;6.05;;;;;;;;;;5047604;28;20065;-63
2023/10/25 11:12:14;;;;;;;8.18;5.78;;;;;;;;;;5051871;28;20040;-63
2023/10/25 11:14:41;;;;;;;10.13;5.72;;;;;;;;;;5052722;28;20072;-63
2023/10/25 11:17:07;;;;;;;11.05;6.35;;;;;;;;;;5050462;28;20495;-64
2023/10/25 11:19:33;;;;;;;12.35;7.07;;;;;;;;;;5051654;28;20095;-64
2023/10/25 11:22:00;;;;;;;11.05;5.88;;;;;;;;;;5052445;28;20434;-64
2023/10/25 11:24:26;;;;;;;10.50;6.53;;;;;;;;;;5052210;28;20491;-63
2023/10/25 11:26:55;;;;;;;10.82;5.90;;;;;;;;;;5042252;28;20048;-63
2023/10/25 11:29:21;;;;;;;10.60;5.25;;;;;;;;;;5049309;28;20052;-63
2023/10/25 11:31:50;;;;;;;8.52;5.97;;;;;;;;;;5040744;28;20067;-64
2023/10/25 11:34:20;;;;;;;10.18;6.18;;;;;;;;;;5044129;28;20127;-64
2023/10/25 11:36:49;;;;;;;9.98;6.85;;;;;;;;;;5037454;28;20043;-64
2023/10/25 11:39:15;;;;;;;10.73;6.15;;;;;;;;;;5041849;28;20068;-63
2023/10/25 11:41:44;;;;;;;12.20;5.90;;;;;;;;;;5051489;28;20090;-63
2023/10/25 11:44:10;;;;;;;11.02;6.53;;;;;;;;;;5051856;28;20423;-63
2023/10/25 11:46:40;;;;;;;12.82;6.50;;;;;;;;;;5051955;28;20062;-63
2023/10/25 11:49:07;;;;;;;8.43;5.90;;;;;;;;;;5046621;28;20124;-63
2023/10/25 11:51:34;;;;;;;10.13;6.68;;;;;;;;;;5059088;28;20079;-63
2023/10/25 11:54:01;;;;;;;11.32;5.90;;;;;;;;;;5042170;28;20060;-62
2023/10/25 11:56:28;;;;;;;8.75;6.50;;;;;;;;;;5041866;28;20045;-62
2023/10/25 11:58:54;;;;;;;11.90;6.47;;;;;;;;;;5070143;28;20421;-63
2023/10/25 12:01:20;;;;;;;10.05;5.38;;;;;;;;;;5054074;28;20495;-63
2023/10/25 12:03:46;;;;;;;11.30;5.75;;;;;;;;;;5027351;28;20048;-60
2023/10/25 12:06:12;;;;;;;13.88;6.38;;;;;;;;;;5036909;28;20041;-62
2023/10/25 12:08:42;;;;;;;11.60;5.68;;;;;;;;;;5040902;28;20036;-62
2023/10/25 12:11:11;;;;;;;9.02;5.50;;;;;;;;;;5016730;28;20036;-61
2023/10/25 12:13:40;;;;;;;7.90;5.10;;;;;;;;;;5049992;28;20041;-62
2023/10/25 12:16:07;;;;;;;10.20;5.63;;;;;;;;;;5050560;28;20040;-61
2023/10/25 12:18:37;;;;;;;9.85;5.65;;;;;;;;;;5047129;28;20044;-62
2023/10/25 12:21:04;;;;;;;12.65;6.22;;;;;;;;;;5047118;28;20091;-62
2023/10/25 12:23:30;;;;;;;8.50;5.85;;;;;;;;;;5070072;28;20601;-63
2023/10/25 12:25:56;;;;;;;12.27;5.97;;;;;;;;;;5058824;28;20438;-62
2023/10/25 12:28:23;;;;;;;11.68;6.00;;;;;;;;;;5062233;28;20529;-62
2023/10/25 12:30:49;;;;;;;10.52;6.05;;;;;;;;;;5050572;28;20580;-62
2023/10/25 12:33:15;;;;;;;10.68;5.85;;;;;;;;;;5048751;28;20044;-62
2023/10/25 12:35:41;;;;;;;10.38;5.43;;;;;;;;;;5033048;28;20120;-62
2023/10/25 12:38:08;;;;;;;14.27;6.70;;;;;;;;;;5054165;28;20106;-62
2023/10/25 12:40:34;;;;;;;10.85;5.85;;;;;;;;;;5049113;28;20604;-61
2023/10/25 12:43:00;;;;;;;11.20;6.03;;;;;;;;;;5049184;28;20045;-62
2023/10/25 12:45:26;;;;;;;9.25;5.85;;;;;;;;;;5048990;28;20048;-62
2023/10/25 12:47:52;;;;;;;9.98;6.20;;;;;;;;;;5044225;28;20076;-62
2023/10/25 12:50:18;;;;;;;13.48;6.35;;;;;;;;;;5032963;28;20059;-62
2023/10/25 12:52:44;;;;;;;9.75;6.70;;;;;;;;;;5038139;28;20115;-62
2023/10/25 12:55:13;;;;;;;7.93;5.82;;;;;;;;;;5029156;28;20052;-62
2023/10/25 12:57:39;;;;;;;11.25;5.97;;;;;;;;;;5037350;28;20049;-63
2023/10/25 13:00:08;;;;;;;11.20;5.93;;;;;;;;;;5017093;28;20041;-63
2023/10/25 13:02:34;;;;;;;10.60;6.53;;;;;;;;;;5048373;28;20040;-62
2023/10/25 13:05:00;;;;;;;12.98;6.93;;;;;;;;;;5046568;28;20044;-62
2023/10/25 13:07:27;;;;;;;8.55;5.55;;;;;;;;;;5036148;28;20453;-63
2023/10/25 13:09:53;;;;;;;9.25;5.82;;;;;;;;;;5048441;28;20560;-64
2023/10/25 13:12:19;;;;;;;13.93;5.47;;;;;;;;;;5047529;28;20041;-62
2023/10/25 13:14:45;;;;;;;11.40;5.70;;;;;;;;;;5037844;28;20056;-62
2023/10/25 13:17:12;;;;;;;8.25;5.75;;;;;;;;;;5040251;28;20120;-61
2023/10/25 13:19:38;;;;;;;11.27;6.18;;;;;;;;;;5002367;28;20443;-62
2023/10/25 13:22:04;;;;;;;10.50;5.90;;;;;;;;;;5046285;28;20159;-64
2023/10/25 13:24:31;;;;;;;9.90;5.40;;;;;;;;;;5043995;28;20491;-63
2023/10/25 13:26:57;;;;;;;9.77;5.97;;;;;;;;;;5048711;28;20049;-63
2023/10/25 13:29:23;;;;;;;11.85;6.10;;;;;;;;;;5046693;28;20048;-62
2023/10/25 13:31:49;;;;;;;7.32;5.55;;;;;;;;;;5050148;28;20142;-62
2023/10/25 13:34:15;;;;;;;9.23;5.65;;;;;;;;;;5046741;28;20075;-62
2023/10/25 13:36:43;;;;;;;10.13;5.70;;;;;;;;;;5031993;28;20094;-62
2023/10/25 13:39:09;;;;;;;8.23;5.15;;;;;;;;;;5044927;28;20538;-61
2023/10/25 13:41:35;;;;;;;8.32;5.22;;;;;;;;;;5069854;28;20036;-63
2023/10/25 13:44:01;;;;;;;6.88;5.38;;;;;;;;;;5060255;28;20480;-63
2023/10/25 13:46:27;;;;;;;11.60;5.40;;;;;;;;;;5049146;28;20098;-62
2023/10/25 13:48:53;;;;;;;11.75;5.78;;;;;;;;;;5048732;28;20135;-63
2023/10/25 13:51:19;;;;;;;9.15;5.22;;;;;;;;;;5048511;28;20049;-63
2023/10/25 13:53:45;;;;;;;13.40;5.90;;;;;;;;;;5048660;28;20057;-62
2023/10/25 13:56:18;;;;;;;11.52;5.55;;;;;;;;;;5048335;28;20498;-63
2023/10/25 13:58:45;;;;;;;10.68;5.40;;;;;;;;;;5048934;28;20106;-63
2023/10/25 14:01:11;;;;;;;9.13;5.00;;;;;;;;;;5049152;28;20052;-62
2023/10/25 14:03:37;;;;;;;6.68;5.25;;;;;;;;;;5051847;28;20044;-62
2023/10/25 14:06:04;;;;;;;12.35;5.70;;;;;;;;;;5052618;28;20546;-63
2023/10/25 14:08:30;;;;;;;9.15;5.40;;;;;;;;;;5034740;28;20402;-63
2023/10/25 14:10:56;;;;;;;9.82;5.43;;;;;;;;;;5052125;28;20556;-63
2023/10/25 14:13:22;;;;;;;9.82;6.10;;;;;;;;;;5052442;28;20041;-63
2023/10/25 14:15:48;;;;;;;12.57;6.03;;;;;;;;;;5052286;28;20260;-61
2023/10/25 14:18:14;;;;;;;10.88;5.72;;;;;;;;;;5050513;28;20041;-62
2023/10/25 14:20:41;;;;;;;7.47;4.85;;;;;;;;;;5032762;28;20051;-62
2023/10/25 14:23:07;;;;;;;8.48;5.30;;;;;;;;;;5050880;28;20503;-62
2023/10/25 14:25:43;;;;;;;10.05;5.15;;;;;;;;;;5050543;28;20045;-62
2023/10/25 14:28:10;;;;;;;9.07;5.43;;;;;;;;;;5050852;28;20048;-62